Time;durP1;ratioP1;P1;durP2;ratioP2;P2;SDS_P1;SDS_P2;PMS_P1;PMS_P2;Temp;Humidity;BMP_temperature;BMP_pressure;BME280_temperature;BME280_humidity;BME280_pressure;Samples;Min_cycle;Max_cycle;Signal;HPM_P1;HPM_P2
2024/03/01 00:00:15;0.00;0.00;0.62;0.00;0.00;0.62;5.93;4.83;;;23.10;23.00;;;;;;2395647;45;20695;-68
2024/03/01 00:03:00;0.00;0.00;0.62;0.00;0.00;0.62;5.60;4.80;;;23.10;23.10;;;;;;2452753;45;20391;-69
2024/03/01 00:05:44;0.00;0.00;0.62;0.00;0.00;0.62;5.87;5.10;;;23.10;23.10;;;;;;2264508;61;20435;-69
2024/03/01 00:08:29;0.00;0.00;0.62;0.00;0.00;0.62;5.80;4.40;;;23.10;23.10;;;;;;2268464;61;20779;-68
2024/03/01 00:11:15;0.00;0.00;0.62;0.00;0.00;0.62;5.63;4.60;;;23.10;23.10;;;;;;2399679;45;20366;-69
2024/03/01 00:14:00;0.00;0.00;0.62;0.00;0.00;0.62;5.70;4.10;;;23.10;23.60;;;;;;2353245;53;20939;-69
2024/03/01 00:16:44;0.00;0.00;0.62;0.00;0.00;0.62;5.97;4.80;;;23.10;23.10;;;;;;2265231;61;20367;-69
2024/03/01 00:19:30;0.00;0.00;0.62;0.00;0.00;0.62;5.10;4.17;;;23.10;23.10;;;;;;2269956;61;20370;-68
2024/03/01 00:22:14;0.00;0.00;0.62;0.00;0.00;0.62;5.00;4.50;;;23.10;23.10;;;;;;2368586;53;20884;-68
2024/03/01 00:24:59;0.00;0.00;0.62;0.00;0.00;0.62;4.47;4.07;;;23.10;23.10;;;;;;2463274;45;20394;-69
2024/03/01 00:27:45;0.00;0.00;0.62;0.00;0.00;0.62;5.80;4.60;;;23.10;23.10;;;;;;2264515;61;20462;-68
2024/03/01 00:30:29;0.00;0.00;0.62;0.00;0.00;0.62;5.80;4.60;;;23.00;23.00;;;;;;2303019;61;20368;-69
2024/03/01 00:33:14;0.00;0.00;0.62;0.00;0.00;0.62;4.40;3.70;;;23.00;23.00;;;;;;2403321;45;20446;-68
2024/03/01 00:36:00;0.00;0.00;0.62;0.00;0.00;0.62;5.57;4.50;;;23.00;23.00;;;;;;2268970;61;20902;-69
2024/03/01 00:38:44;0.00;0.00;0.62;0.00;0.00;0.62;5.70;4.60;;;23.00;23.10;;;;;;2266861;61;20366;-69
2024/03/01 00:41:29;0.00;0.00;0.62;0.00;0.00;0.62;5.60;4.90;;;23.00;23.10;;;;;;2268081;61;20460;-69
2024/03/01 00:44:15;0.00;0.00;0.62;0.00;0.00;0.62;5.70;4.67;;;23.00;23.10;;;;;;2408264;45;20782;-68
2024/03/01 00:47:01;0.00;0.00;0.62;0.00;0.00;0.62;5.20;4.70;;;23.00;23.00;;;;;;2267014;61;20425;-69
2024/03/01 00:49:46;0.00;0.00;0.62;0.00;0.00;0.62;5.33;4.60;;;23.00;23.00;;;;;;2268230;61;20771;-68
2024/03/01 00:52:31;0.00;0.00;0.62;0.00;0.00;0.62;5.70;4.60;;;23.00;23.00;;;;;;2268737;61;20363;-69
2024/03/01 00:55:17;0.00;0.00;0.62;0.00;0.00;0.62;5.33;4.30;;;23.00;23.00;;;;;;2401329;45;20414;-67
2024/03/01 00:58:03;0.00;0.00;0.62;0.00;0.00;0.62;5.20;4.43;;;23.00;23.00;;;;;;2367746;53;20365;-69
2024/03/01 01:00:49;0.00;0.00;0.62;0.00;0.00;0.62;4.80;4.13;;;23.00;23.10;;;;;;2266238;61;20379;-69
2024/03/01 01:03:33;0.00;0.00;0.62;0.00;0.00;0.62;4.67;4.17;;;23.00;23.00;;;;;;2269012;61;20609;-68
2024/03/01 01:06:18;0.00;0.00;0.62;0.00;0.00;0.62;5.20;4.30;;;23.00;23.00;;;;;;2342869;53;20460;-68
2024/03/01 01:09:03;0.00;0.00;0.62;0.00;0.00;0.62;6.00;4.23;;;23.00;23.60;;;;;;2456452;45;20419;-68
2024/03/01 01:11:47;0.00;0.00;0.62;0.00;0.00;0.62;5.30;4.53;;;23.00;23.10;;;;;;2265512;61;20406;-68
2024/03/01 01:14:32;0.00;0.00;0.62;0.00;0.00;0.62;4.97;4.47;;;23.00;23.00;;;;;;2267443;61;20980;-68
2024/03/01 01:17:19;0.00;0.00;0.62;0.00;0.00;0.62;5.97;4.50;;;23.00;23.00;;;;;;2400261;45;20833;-68
2024/03/01 01:20:06;0.00;0.00;0.62;0.00;0.00;0.62;5.07;4.20;;;23.00;23.60;;;;;;2352363;53;20669;-68
2024/03/01 01:22:51;0.00;0.00;0.62;0.00;0.00;0.62;5.13;4.27;;;22.90;22.90;;;;;;2267087;61;20443;-68
2024/03/01 01:25:36;0.00;0.00;0.62;0.00;0.00;0.62;6.47;4.50;;;23.00;23.00;;;;;;2265006;61;20851;-68
2024/03/01 01:28:21;0.00;0.00;0.62;0.00;0.00;0.62;4.80;4.30;;;22.90;22.90;;;;;;2389990;45;20931;-69
2024/03/01 01:31:08;0.00;0.00;0.62;0.00;0.00;0.62;4.53;3.93;;;22.90;22.90;;;;;;2379749;53;20367;-69
2024/03/01 01:33:54;0.00;0.00;0.62;0.00;0.00;0.62;5.43;4.50;;;22.90;22.90;;;;;;2267363;61;20395;-68
2024/03/01 01:36:40;0.00;0.00;0.62;0.00;0.00;0.62;5.43;4.40;;;22.90;22.90;;;;;;2266263;61;20412;-69
2024/03/01 01:39:25;0.00;0.00;0.62;0.00;0.00;0.62;4.50;3.70;;;22.90;22.90;;;;;;2264961;61;20357;-68
2024/03/01 01:42:10;0.00;0.00;0.62;0.00;0.00;0.62;4.90;4.30;;;22.90;22.90;;;;;;2435115;45;20390;-68
2024/03/01 01:44:55;0.00;0.00;0.62;0.00;0.00;0.62;5.83;4.37;;;22.90;22.90;;;;;;2267272;61;20502;-68
2024/03/01 01:47:40;0.00;0.00;0.62;0.00;0.00;0.62;6.10;4.90;;;22.90;22.90;;;;;;2266951;61;20462;-68
2024/03/01 01:50:26;0.00;0.00;0.62;0.00;0.00;0.62;6.70;5.03;;;22.90;22.90;;;;;;2267801;61;20376;-68
2024/03/01 01:53:11;0.00;0.00;0.62;0.00;0.00;0.62;4.90;4.00;;;22.90;22.90;;;;;;2340827;53;20395;-68
2024/03/01 01:55:57;0.00;0.00;0.62;0.00;0.00;0.62;5.67;4.10;;;22.90;22.90;;;;;;2267057;61;20777;-68
2024/03/01 01:58:44;0.00;0.00;0.62;0.00;0.00;0.62;4.77;4.20;;;22.90;23.50;;;;;;2267320;61;20363;-68
2024/03/01 02:01:29;0.00;0.00;0.62;0.00;0.00;0.62;5.13;4.60;;;22.90;22.90;;;;;;2268774;61;20428;-68
2024/03/01 02:04:15;0.00;0.00;0.62;0.00;0.00;0.62;4.43;4.03;;;22.90;23.00;;;;;;2392830;45;20432;-68
2024/03/01 02:07:01;0.00;0.00;0.62;0.00;0.00;0.62;4.70;4.10;;;22.90;23.00;;;;;;2266141;61;20375;-68
2024/03/01 02:09:46;0.00;0.00;0.62;0.00;0.00;0.62;4.70;4.20;;;22.90;23.50;;;;;;2269327;61;20371;-68
2024/03/01 02:12:31;0.00;0.00;0.62;0.00;0.00;0.62;5.60;4.23;;;22.90;22.90;;;;;;2268089;61;20812;-68
2024/03/01 02:15:16;0.00;0.00;0.62;0.00;0.00;0.62;5.73;4.70;;;22.90;23.00;;;;;;2339621;53;20358;-68
2024/03/01 02:18:01;0.00;0.00;0.62;0.00;0.00;0.62;4.17;3.53;;;22.90;23.00;;;;;;2268934;61;20872;-68
2024/03/01 02:20:58;0.00;0.00;0.62;0.00;0.00;0.62;4.93;3.80;;;22.90;22.90;;;;;;2267412;61;20367;-68
2024/03/01 02:23:45;0.00;0.00;0.62;0.00;0.00;0.62;5.17;4.03;;;22.80;22.90;;;;;;2267261;61;20391;-68
2024/03/01 02:26:30;0.00;0.00;0.62;0.00;0.00;0.62;5.63;4.83;;;22.80;22.90;;;;;;2262968;61;20519;-68
2024/03/01 02:29:15;0.00;0.00;0.62;0.00;0.00;0.62;4.33;3.47;;;22.90;22.90;;;;;;2349926;53;20374;-68
2024/03/01 02:32:00;0.00;0.00;0.62;0.00;0.00;0.62;5.40;4.83;;;22.80;22.90;;;;;;2268476;61;20501;-67
2024/03/01 02:34:44;0.00;0.00;0.62;0.00;0.00;0.62;5.70;4.30;;;22.80;22.90;;;;;;2268247;61;20438;-68
2024/03/01 02:37:29;0.00;0.00;0.62;0.00;0.00;0.62;4.83;4.20;;;22.80;22.90;;;;;;2265741;61;20364;-68
2024/03/01 02:40:15;0.00;0.00;0.62;0.00;0.00;0.62;4.17;3.77;;;22.80;22.90;;;;;;2433275;45;20367;-68
2024/03/01 02:42:59;0.00;0.00;0.62;0.00;0.00;0.62;4.77;4.27;;;22.80;22.90;;;;;;2266991;61;20461;-68
2024/03/01 02:45:44;0.00;0.00;0.62;0.00;0.00;0.62;5.50;3.87;;;22.80;22.90;;;;;;2268842;40;20744;-67
2024/03/01 02:48:28;0.00;0.00;0.62;0.00;0.00;0.62;5.47;4.80;;;22.80;22.90;;;;;;2261459;61;20506;-66
2024/03/01 02:51:13;0.00;0.00;0.62;0.00;0.00;0.62;5.13;4.07;;;22.80;22.90;;;;;;2432080;45;20375;-66
2024/03/01 02:53:58;0.00;0.00;0.62;0.00;0.00;0.62;4.50;4.10;;;22.80;22.90;;;;;;2261837;61;20496;-66
2024/03/01 02:56:45;0.00;0.00;0.62;0.00;0.00;0.62;5.37;4.30;;;22.80;22.90;;;;;;2257028;61;20843;-66
2024/03/01 02:59:30;0.00;0.00;0.62;0.00;0.00;0.62;5.07;4.50;;;22.80;22.90;;;;;;2257126;61;20378;-66
2024/03/01 03:02:14;0.00;0.00;0.62;0.00;0.00;0.62;5.73;4.93;;;22.80;22.80;;;;;;2371455;53;20404;-65
2024/03/01 03:04:59;0.00;0.00;0.62;0.00;0.00;0.62;5.03;4.40;;;22.80;22.80;;;;;;2261227;61;20779;-66
2024/03/01 03:07:43;0.00;0.00;0.62;0.00;0.00;0.62;4.90;4.00;;;22.80;22.80;;;;;;2260128;61;20372;-66
2024/03/01 03:10:28;0.00;0.00;0.62;0.00;0.00;0.62;5.43;4.50;;;22.80;22.80;;;;;;2258722;61;20409;-66
2024/03/01 03:13:14;0.00;0.00;0.62;0.00;0.00;0.62;6.00;4.57;;;22.80;22.80;;;;;;2433706;45;20392;-65
2024/03/01 03:15:59;0.00;0.00;0.62;0.00;0.00;0.62;5.63;4.73;;;22.80;22.80;;;;;;2260471;61;20396;-66
2024/03/01 03:18:43;0.00;0.00;0.62;0.00;0.00;0.62;6.40;5.03;;;22.80;22.80;;;;;;2260155;61;20372;-66
2024/03/01 03:21:28;0.00;0.00;0.62;0.00;0.00;0.62;5.93;4.70;;;22.80;22.70;;;;;;2258973;61;20880;-66
2024/03/01 03:24:13;0.00;0.00;0.62;0.00;0.00;0.62;5.50;4.87;;;22.80;22.70;;;;;;2334891;45;20904;-66
2024/03/01 03:26:57;0.00;0.00;0.62;0.00;0.00;0.62;5.07;4.40;;;22.80;22.70;;;;;;2256966;61;20401;-65
2024/03/01 03:29:43;0.00;0.00;0.62;0.00;0.00;0.62;6.67;5.37;;;22.80;22.70;;;;;;2260514;61;20381;-66
2024/03/01 03:32:28;0.00;0.00;0.62;0.00;0.00;0.62;4.83;4.33;;;22.80;22.70;;;;;;2258904;61;20926;-66
2024/03/01 03:35:13;0.00;0.00;0.62;0.00;0.00;0.62;5.37;4.87;;;22.80;22.70;;;;;;2412672;45;20485;-67
2024/03/01 03:37:57;0.00;0.00;0.62;0.00;0.00;0.62;5.60;4.50;;;22.70;22.60;;;;;;2260470;61;20373;-66
2024/03/01 03:40:42;0.00;0.00;0.62;0.00;0.00;0.62;6.63;5.37;;;22.70;22.60;;;;;;2258667;61;20420;-66
2024/03/01 03:43:27;0.00;0.00;0.62;0.00;0.00;0.62;5.23;4.40;;;22.70;22.60;;;;;;2258205;61;20362;-65
2024/03/01 03:46:13;0.00;0.00;0.62;0.00;0.00;0.62;4.83;4.27;;;22.70;22.70;;;;;;2363652;53;20990;-65
2024/03/01 03:48:57;0.00;0.00;0.62;0.00;0.00;0.62;5.90;3.87;;;22.70;22.60;;;;;;2259110;61;20373;-66
2024/03/01 03:51:42;0.00;0.00;0.62;0.00;0.00;0.62;4.63;3.97;;;22.70;22.70;;;;;;2262233;61;20379;-66
2024/03/01 03:54:27;0.00;0.00;0.62;0.00;0.00;0.62;5.77;4.47;;;22.70;22.70;;;;;;2347805;53;20808;-66
2024/03/01 03:57:11;0.00;0.00;0.62;0.00;0.00;0.62;4.73;4.10;;;22.70;22.70;;;;;;2451658;45;20431;-66
2024/03/01 03:59:56;0.00;0.00;0.62;0.00;0.00;0.62;5.53;4.70;;;22.70;22.70;;;;;;2262984;61;20407;-66
2024/03/01 04:02:43;0.00;0.00;0.62;0.00;0.00;0.62;4.40;3.80;;;22.70;22.70;;;;;;2263153;61;20894;-66
2024/03/01 04:05:29;0.00;0.00;0.62;0.00;0.00;0.62;5.07;4.57;;;22.70;22.70;;;;;;2320082;53;20396;-66
2024/03/01 04:08:13;0.00;0.00;0.62;0.00;0.00;0.62;4.43;3.93;;;22.70;22.70;;;;;;2445552;45;20361;-66
2024/03/01 04:11:05;0.00;0.00;0.62;0.00;0.00;0.62;5.17;4.00;;;22.70;22.70;;;;;;2262346;61;20465;-66
2024/03/01 04:13:49;0.00;0.00;0.62;0.00;0.00;0.62;5.07;4.37;;;22.70;22.70;;;;;;2261197;61;20824;-68
2024/03/01 04:16:34;0.00;0.00;0.62;0.00;0.00;0.62;5.80;5.00;;;22.70;22.70;;;;;;2259016;61;20385;-66
2024/03/01 04:19:20;0.00;0.00;0.62;0.00;0.00;0.62;5.13;4.40;;;22.70;22.70;;;;;;2373282;53;20365;-66
2024/03/01 04:22:05;0.00;0.00;0.62;0.00;0.00;0.62;5.53;4.60;;;22.70;22.70;;;;;;2255027;61;20500;-66
2024/03/01 04:24:50;0.00;0.00;0.62;0.00;0.00;0.62;5.43;4.50;;;22.60;22.70;;;;;;2314554;58;20435;-66
2024/03/01 04:27:37;0.00;0.00;0.62;0.00;0.00;0.62;5.00;4.47;;;22.60;22.70;;;;;;2260123;61;20491;-69
2024/03/01 04:30:23;0.00;0.00;0.62;0.00;0.00;0.62;5.07;4.57;;;22.70;22.70;;;;;;2412879;45;20365;-66
2024/03/01 04:33:07;0.00;0.00;0.62;0.00;0.00;0.62;4.63;4.20;;;22.60;22.70;;;;;;2258506;61;20468;-67
2024/03/01 04:35:53;0.00;0.00;0.62;0.00;0.00;0.62;6.67;4.40;;;22.60;22.70;;;;;;2257172;61;20393;-66
2024/03/01 04:38:38;0.00;0.00;0.62;0.00;0.00;0.62;5.47;4.17;;;22.60;22.70;;;;;;2257941;61;20802;-66
2024/03/01 04:41:23;0.00;0.00;0.62;0.00;0.00;0.62;5.50;4.60;;;22.60;22.70;;;;;;2410440;45;20416;-66
2024/03/01 04:44:08;0.00;0.00;0.62;0.00;0.00;0.62;4.80;4.30;;;22.60;22.70;;;;;;2259921;61;21178;-66
2024/03/01 04:46:53;0.00;0.00;0.62;0.00;0.00;0.62;5.17;4.30;;;22.60;22.70;;;;;;2259838;61;20420;-66
2024/03/01 04:49:43;0.00;0.00;0.62;0.00;0.00;0.62;5.90;4.83;;;22.60;22.70;;;;;;2253652;61;20448;-66
2024/03/01 04:52:29;0.00;0.00;0.62;0.00;0.00;0.62;5.07;4.13;;;22.60;22.80;;;;;;2383649;45;20424;-66
2024/03/01 04:55:13;0.00;0.00;0.62;0.00;0.00;0.62;4.77;3.70;;;22.60;22.70;;;;;;2258831;61;20795;-65
2024/03/01 04:57:58;0.00;0.00;0.62;0.00;0.00;0.62;4.90;4.03;;;22.60;22.70;;;;;;2259858;61;20373;-66
2024/03/01 05:00:43;0.00;0.00;0.62;0.00;0.00;0.62;5.40;4.33;;;22.60;22.80;;;;;;2256606;61;20933;-67
2024/03/01 05:03:31;0.00;0.00;0.62;0.00;0.00;0.62;5.20;4.00;;;22.60;22.80;;;;;;2399491;45;20484;-65
2024/03/01 05:06:15;0.00;0.00;0.62;0.00;0.00;0.62;4.70;4.17;;;22.60;22.80;;;;;;2446715;45;20396;-65
2024/03/01 05:09:03;0.00;0.00;0.62;0.00;0.00;0.62;5.50;3.77;;;22.50;22.70;;;;;;2260060;61;20399;-65
2024/03/01 05:11:47;0.00;0.00;0.62;0.00;0.00;0.62;5.90;5.00;;;22.50;22.70;;;;;;2259338;61;20524;-69
2024/03/01 05:14:32;0.00;0.00;0.62;0.00;0.00;0.62;5.23;4.20;;;22.50;22.70;;;;;;2384629;45;20458;-64
2024/03/01 05:17:17;0.00;0.00;0.62;0.00;0.00;0.62;5.37;4.83;;;22.50;22.70;;;;;;2414579;45;20769;-67
2024/03/01 05:20:10;0.00;0.00;0.62;0.00;0.00;0.62;5.17;4.67;;;22.50;22.70;;;;;;2258072;61;20377;-63
2024/03/01 05:22:56;0.00;0.00;0.62;0.00;0.00;0.62;6.63;5.90;;;22.50;22.70;;;;;;2259539;61;20424;-67
2024/03/01 05:25:42;0.00;0.00;0.62;0.00;0.00;0.62;6.00;5.10;;;22.50;22.70;;;;;;2259991;61;20431;-67
2024/03/01 05:28:27;0.00;0.00;0.62;0.00;0.00;0.62;6.77;5.20;;;22.50;22.80;;;;;;2325393;53;20404;-66
2024/03/01 05:31:12;0.00;0.00;0.62;0.00;0.00;0.62;6.30;5.23;;;22.50;22.70;;;;;;2258329;61;20452;-64
2024/03/01 05:33:56;0.00;0.00;0.62;0.00;0.00;0.62;7.00;6.30;;;22.50;22.70;;;;;;2259714;61;20396;-64
2024/03/01 05:36:41;0.00;0.00;0.62;0.00;0.00;0.62;6.97;5.60;;;22.50;22.70;;;;;;2259525;61;20447;-65
2024/03/01 05:39:25;0.00;0.00;0.62;0.00;0.00;0.62;6.30;5.70;;;22.50;22.70;;;;;;2413747;45;20475;-64
2024/03/01 05:42:11;0.00;0.00;0.62;0.00;0.00;0.62;10.80;7.40;;;22.50;22.70;;;;;;2259950;61;20392;-65
2024/03/01 05:44:56;0.00;0.00;0.62;0.00;0.00;0.62;9.07;7.57;;;22.50;22.70;;;;;;2257691;61;20442;-66
2024/03/01 05:47:43;0.00;0.00;0.62;0.00;0.00;0.62;8.63;7.70;;;22.50;22.70;;;;;;2261314;61;20371;-65
2024/03/01 05:50:28;0.00;0.00;0.62;0.00;0.00;0.62;9.43;7.83;;;22.50;22.70;;;;;;2409435;45;20453;-65
2024/03/01 05:53:15;0.00;0.00;0.62;0.00;0.00;0.62;10.43;7.83;;;22.50;22.70;;;;;;2260277;61;20402;-65
2024/03/01 05:56:00;0.00;0.00;0.62;0.00;0.00;0.62;8.43;7.40;;;22.40;22.60;;;;;;2263758;58;20400;-65
2024/03/01 05:58:46;0.00;0.00;0.62;0.00;0.00;0.62;9.77;7.43;;;22.40;22.60;;;;;;2256065;61;20382;-65
2024/03/01 06:01:32;0.00;0.00;0.62;0.00;0.00;0.62;8.80;7.60;;;22.40;22.60;;;;;;2321930;53;20781;-65
2024/03/01 06:04:17;0.00;0.00;0.62;0.00;0.00;0.62;8.07;6.63;;;22.40;22.70;;;;;;2255433;61;20373;-65
2024/03/01 06:07:01;0.00;0.00;0.62;0.00;0.00;0.62;8.73;7.67;;;22.40;22.70;;;;;;2258178;61;20376;-64
2024/03/01 06:09:46;0.00;0.00;0.62;0.00;0.00;0.62;12.17;8.10;;;22.40;22.70;;;;;;2256008;61;20374;-65
2024/03/01 06:12:31;0.00;0.00;0.62;0.00;0.00;0.62;9.23;7.33;;;22.40;22.70;;;;;;2632543;45;20913;-65
2024/03/01 06:15:17;0.00;0.00;0.62;0.00;0.00;0.62;8.20;7.30;;;22.40;22.70;;;;;;2260243;61;20963;-66
2024/03/01 06:18:02;0.00;0.00;0.62;0.00;0.00;0.62;8.33;7.40;;;22.40;22.80;;;;;;2256472;61;20389;-66
2024/03/01 06:20:46;0.00;0.00;0.62;0.00;0.00;0.62;9.30;8.30;;;22.40;22.70;;;;;;2258625;61;20377;-65
2024/03/01 06:23:31;0.00;0.00;0.62;0.00;0.00;0.62;8.53;7.23;;;22.40;22.80;;;;;;2401334;45;20763;-66
2024/03/01 06:26:16;0.00;0.00;0.62;0.00;0.00;0.62;7.93;6.70;;;22.40;22.80;;;;;;2261077;61;20447;-67
2024/03/01 06:29:00;0.00;0.00;0.62;0.00;0.00;0.62;9.20;8.13;;;22.40;22.80;;;;;;2260626;61;20460;-65
2024/03/01 06:31:46;0.00;0.00;0.62;0.00;0.00;0.62;9.17;8.17;;;22.40;22.80;;;;;;2261142;61;20380;-65
2024/03/01 06:34:31;0.00;0.00;0.62;0.00;0.00;0.62;8.43;7.53;;;22.30;22.70;;;;;;2328608;53;20932;-65
2024/03/01 06:37:18;0.00;0.00;0.62;0.00;0.00;0.62;8.40;7.03;;;22.40;22.80;;;;;;2260619;61;20367;-65
2024/03/01 06:40:09;0.00;0.00;0.62;0.00;0.00;0.62;7.67;6.77;;;22.30;22.80;;;;;;2256797;61;20466;-65
2024/03/01 06:42:53;0.00;0.00;0.62;0.00;0.00;0.62;9.00;7.23;;;22.30;22.80;;;;;;2259375;61;20453;-70
2024/03/01 06:45:38;0.00;0.00;0.62;0.00;0.00;0.62;8.40;7.37;;;22.30;22.80;;;;;;2376380;45;20431;-66
2024/03/01 06:48:24;0.00;0.00;0.62;0.00;0.00;0.62;9.00;7.70;;;22.30;22.80;;;;;;2444064;45;20411;-65
2024/03/01 06:51:09;0.00;0.00;0.62;0.00;0.00;0.62;8.37;6.80;;;22.30;22.80;;;;;;2253995;61;20895;-65
2024/03/01 06:53:54;0.00;0.00;0.62;0.00;0.00;0.62;7.40;6.60;;;22.30;22.80;;;;;;2260825;61;20420;-65
2024/03/01 06:56:40;0.00;0.00;0.62;0.00;0.00;0.62;9.50;7.73;;;22.30;22.80;;;;;;2384156;45;20392;-64
2024/03/01 06:59:25;0.00;0.00;0.62;0.00;0.00;0.62;9.30;6.90;;;22.30;22.80;;;;;;2418235;45;20928;-64
2024/03/01 07:02:09;0.00;0.00;0.62;0.00;0.00;0.62;7.70;6.70;;;22.30;22.80;;;;;;2258564;61;20898;-65
2024/03/01 07:04:55;0.00;0.00;0.62;0.00;0.00;0.62;10.70;7.90;;;22.30;22.80;;;;;;2260113;61;20428;-65
2024/03/01 07:07:40;0.00;0.00;0.62;0.00;0.00;0.62;9.57;7.90;;;22.30;22.90;;;;;;2258902;61;20418;-65
2024/03/01 07:10:25;0.00;0.00;0.62;0.00;0.00;0.62;11.50;8.47;;;22.30;22.90;;;;;;2260687;58;20449;-65
2024/03/01 07:13:09;0.00;0.00;0.62;0.00;0.00;0.62;9.63;8.33;;;22.30;22.90;;;;;;2259931;61;20392;-64
2024/03/01 07:15:54;0.00;0.00;0.62;0.00;0.00;0.62;10.00;9.00;;;22.30;22.90;;;;;;2258588;61;20403;-64
2024/03/01 07:18:38;0.00;0.00;0.62;0.00;0.00;0.62;10.37;8.20;;;22.30;22.90;;;;;;2341394;53;20365;-64
2024/03/01 07:21:24;0.00;0.00;0.62;0.00;0.00;0.62;9.73;8.17;;;22.30;22.90;;;;;;2445613;45;20750;-65
2024/03/01 07:24:09;0.00;0.00;0.62;0.00;0.00;0.62;10.87;8.77;;;22.30;22.90;;;;;;2260155;61;20943;-66
2024/03/01 07:26:54;0.00;0.00;0.62;0.00;0.00;0.62;10.60;9.13;;;22.30;22.90;;;;;;2260156;61;20902;-65
2024/03/01 07:29:38;0.00;0.00;0.62;0.00;0.00;0.62;10.07;9.00;;;22.30;22.90;;;;;;2360522;45;20368;-66
2024/03/01 07:32:23;0.00;0.00;0.62;0.00;0.00;0.62;9.90;8.90;;;22.30;22.90;;;;;;2449862;45;20377;-65
2024/03/01 07:35:08;0.00;0.00;0.62;0.00;0.00;0.62;12.83;9.60;;;22.30;22.90;;;;;;2258373;61;20547;-65
2024/03/01 07:37:54;0.00;0.00;0.62;0.00;0.00;0.62;12.93;9.40;;;22.30;22.90;;;;;;2260156;61;20784;-65
2024/03/01 07:40:40;0.00;0.00;0.62;0.00;0.00;0.62;12.10;10.17;;;22.30;22.90;;;;;;2318889;53;20913;-66
2024/03/01 07:43:25;0.00;0.00;0.62;0.00;0.00;0.62;13.43;9.90;;;22.30;22.90;;;;;;2384115;53;20356;-66
2024/03/01 07:46:09;0.00;0.00;0.62;0.00;0.00;0.62;9.53;8.53;;;22.30;22.90;;;;;;2260369;61;20400;-66
2024/03/01 07:48:55;0.00;0.00;0.62;0.00;0.00;0.62;11.87;9.60;;;22.30;23.00;;;;;;2258460;61;20366;-65
2024/03/01 07:51:40;0.00;0.00;0.62;0.00;0.00;0.62;12.37;10.23;;;22.30;23.00;;;;;;2370306;45;20361;-66
2024/03/01 07:54:27;0.00;0.00;0.62;0.00;0.00;0.62;10.97;9.43;;;22.20;22.90;;;;;;2450496;45;20396;-66
2024/03/01 07:57:12;0.00;0.00;0.62;0.00;0.00;0.62;10.83;9.00;;;22.30;23.00;;;;;;2260045;61;20385;-67
2024/03/01 07:59:56;0.00;0.00;0.62;0.00;0.00;0.62;12.13;9.97;;;22.30;23.00;;;;;;2258576;61;20738;-67
2024/03/01 08:02:42;0.00;0.00;0.62;0.00;0.00;0.62;10.80;9.23;;;22.30;23.00;;;;;;2385234;45;20357;-68
2024/03/01 08:05:26;0.00;0.00;0.62;0.00;0.00;0.62;14.17;10.20;;;22.30;23.00;;;;;;2445275;45;20388;-67
2024/03/01 08:08:13;0.00;0.00;0.62;0.00;0.00;0.62;11.37;9.90;;;22.30;23.00;;;;;;2260480;61;20415;-67
2024/03/01 08:10:59;0.00;0.00;0.62;0.00;0.00;0.62;10.93;9.83;;;22.30;23.10;;;;;;2259110;61;20773;-66
2024/03/01 08:13:44;0.00;0.00;0.62;0.00;0.00;0.62;12.43;10.50;;;22.30;23.10;;;;;;2259839;61;20400;-66
2024/03/01 08:16:29;0.00;0.00;0.62;0.00;0.00;0.62;12.70;10.30;;;22.30;23.20;;;;;;2407299;45;20389;-67
2024/03/01 08:19:15;0.00;0.00;0.62;0.00;0.00;0.62;11.70;9.87;;;22.30;23.20;;;;;;2259845;61;20849;-67
2024/03/01 08:22:07;0.00;0.00;0.62;0.00;0.00;0.62;11.67;9.67;;;22.30;23.20;;;;;;2260288;61;20415;-66
2024/03/01 08:24:55;0.00;0.00;0.62;0.00;0.00;0.62;14.30;10.60;;;22.30;23.20;;;;;;2259235;61;20384;-70
2024/03/01 08:27:41;0.00;0.00;0.62;0.00;0.00;0.62;12.50;9.40;;;22.30;23.30;;;;;;2396389;45;20421;-67
2024/03/01 08:30:41;0.00;0.00;0.62;0.00;0.00;0.62;11.90;10.20;;;22.30;23.30;;;;;;2259093;61;20886;-68
2024/03/01 08:33:26;0.00;0.00;0.62;0.00;0.00;0.62;14.07;9.40;;;22.30;23.40;;;;;;2381520;53;20919;-66
2024/03/01 08:36:11;0.00;0.00;0.62;0.00;0.00;0.62;11.77;10.30;;;22.30;23.40;;;;;;2258147;61;20389;-67
2024/03/01 08:39:10;0.00;0.00;0.62;0.00;0.00;0.62;13.53;9.33;;;22.30;23.40;;;;;;2260091;61;20411;-67
2024/03/01 08:41:58;0.00;0.00;0.62;0.00;0.00;0.62;11.30;9.20;;;22.30;23.40;;;;;;2257645;61;20936;-67
2024/03/01 08:44:58;0.00;0.00;0.62;0.00;0.00;0.62;11.23;9.50;;;22.30;23.40;;;;;;2384174;45;20769;-67
2024/03/01 08:47:47;0.00;0.00;0.62;0.00;0.00;0.62;11.67;8.57;;;22.30;23.50;;;;;;2318091;53;20361;-67
2024/03/01 08:50:47;0.00;0.00;0.62;0.00;0.00;0.62;11.87;9.60;;;22.30;23.50;;;;;;2324545;40;20461;-64
2024/03/01 08:54:00;0.00;0.00;0.62;0.00;0.00;0.62;10.60;9.50;;;22.30;23.50;;;;;;2439933;45;20494;-65
2024/03/01 08:56:59;0.00;0.00;0.62;0.00;0.00;0.62;13.83;10.00;;;22.30;23.50;;;;;;2328151;53;20382;-65
2024/03/01 08:59:53;0.00;0.00;0.62;0.00;0.00;0.62;10.83;8.83;;;22.30;23.50;;;;;;2396152;45;20789;-64
2024/03/01 09:02:48;0.00;0.00;0.62;0.00;0.00;0.62;10.77;8.53;;;22.30;23.50;;;;;;2367508;53;20443;-65
2024/03/01 09:05:38;0.00;0.00;0.62;0.00;0.00;0.62;12.10;9.57;;;22.30;23.50;;;;;;2340927;53;20739;-64
2024/03/01 09:08:24;0.00;0.00;0.62;0.00;0.00;0.62;11.37;8.77;;;22.30;23.50;;;;;;2263400;61;20403;-64
2024/03/01 09:11:12;0.00;0.00;0.62;0.00;0.00;0.62;9.27;7.80;;;22.30;23.50;;;;;;2263194;61;20813;-65
2024/03/01 09:13:57;0.00;0.00;0.62;0.00;0.00;0.62;10.80;8.70;;;22.40;23.60;;;;;;2263300;61;20443;-66
2024/03/01 09:16:41;0.00;0.00;0.62;0.00;0.00;0.62;10.60;8.87;;;22.40;24.10;;;;;;2405475;45;20912;-66
2024/03/01 09:19:38;0.00;0.00;0.62;0.00;0.00;0.62;11.50;8.70;;;22.40;23.60;;;;;;2262770;61;20404;-67
2024/03/01 09:22:24;0.00;0.00;0.62;0.00;0.00;0.62;9.77;8.77;;;22.40;23.60;;;;;;2263187;61;20425;-66
2024/03/01 09:25:58;0.00;0.00;0.62;0.00;0.00;0.62;9.30;7.90;;;22.40;23.70;;;;;;2263212;61;20868;-66
2024/03/01 09:28:44;0.00;0.00;0.62;0.00;0.00;0.62;9.60;7.60;;;22.40;23.70;;;;;;2397235;45;20373;-66
2024/03/01 09:31:31;0.00;0.00;0.62;0.00;0.00;0.62;9.67;7.67;;;22.40;23.60;;;;;;2433253;45;20371;-66
2024/03/01 09:34:17;0.00;0.00;0.62;0.00;0.00;0.62;8.93;7.70;;;22.40;23.70;;;;;;2262797;61;20387;-65
2024/03/01 09:37:10;0.00;0.00;0.62;0.00;0.00;0.62;8.37;7.00;;;22.50;23.70;;;;;;2263512;61;20414;-66
2024/03/01 09:39:59;0.00;0.00;0.62;0.00;0.00;0.62;9.53;7.63;;;22.50;23.70;;;;;;2260008;61;20461;-67
2024/03/01 09:42:52;0.00;0.00;0.62;0.00;0.00;0.62;9.10;8.07;;;22.50;23.70;;;;;;2399499;45;20423;-67
2024/03/01 09:45:54;0.00;0.00;0.62;0.00;0.00;0.62;9.87;7.70;;;22.50;23.70;;;;;;2428453;45;21000;-66
2024/03/01 09:48:50;0.00;0.00;0.62;0.00;0.00;0.62;8.53;7.57;;;22.50;23.70;;;;;;2357965;53;20358;-67
2024/03/01 09:51:44;0.00;0.00;0.62;0.00;0.00;0.62;8.40;6.40;;;22.50;23.70;;;;;;2436514;45;20360;-66
2024/03/01 09:54:40;0.00;0.00;0.62;0.00;0.00;0.62;9.60;7.10;;;22.50;23.70;;;;;;2262530;61;20385;-66
2024/03/01 09:57:33;0.00;0.00;0.62;0.00;0.00;0.62;9.70;7.07;;;22.60;23.80;;;;;;2262952;61;20901;-66
2024/03/01 10:00:24;0.00;0.00;0.62;0.00;0.00;0.62;7.73;6.87;;;22.60;23.80;;;;;;2263446;61;20920;-66
2024/03/01 10:03:23;0.00;0.00;0.62;0.00;0.00;0.62;7.67;6.80;;;22.60;23.80;;;;;;2263128;61;20384;-66
2024/03/01 10:06:39;0.00;0.00;0.62;0.00;0.00;0.62;7.40;6.20;;;22.60;23.80;;;;;;2263359;61;20375;-66
2024/03/01 10:09:39;0.00;0.00;0.62;0.00;0.00;0.62;7.80;6.47;;;22.60;23.80;;;;;;2263455;61;20796;-66
2024/03/01 10:12:46;0.00;0.00;0.62;0.00;0.00;0.62;8.23;7.43;;;22.70;23.80;;;;;;2263190;61;20415;-66
2024/03/01 10:15:40;0.00;0.00;0.62;0.00;0.00;0.62;7.73;6.13;;;22.70;23.80;;;;;;2263240;61;20705;-66
2024/03/01 10:18:41;0.00;0.00;0.62;0.00;0.00;0.62;7.60;6.70;;;22.70;23.80;;;;;;2262737;61;20376;-66
2024/03/01 10:21:39;0.00;0.00;0.62;0.00;0.00;0.62;7.80;6.40;;;22.70;23.80;;;;;;2263334;61;20363;-66
2024/03/01 10:24:39;0.00;0.00;0.62;0.00;0.00;0.62;8.60;6.33;;;22.70;23.80;;;;;;2259855;61;20874;-66
2024/03/01 10:27:34;0.00;0.00;0.62;0.00;0.00;0.62;7.90;6.67;;;22.70;23.80;;;;;;2262897;61;20857;-66
2024/03/01 10:30:23;0.00;0.00;0.62;0.00;0.00;0.62;8.87;6.87;;;22.70;23.80;;;;;;2277501;61;20493;-66
2024/03/01 10:33:24;0.00;0.00;0.62;0.00;0.00;0.62;8.50;6.67;;;22.70;23.80;;;;;;2263074;61;20371;-66
2024/03/01 10:36:16;0.00;0.00;0.62;0.00;0.00;0.62;8.83;6.70;;;22.80;23.90;;;;;;2263980;61;20410;-66
2024/03/01 10:39:07;0.00;0.00;0.62;0.00;0.00;0.62;7.33;6.43;;;22.80;23.90;;;;;;2263657;61;20437;-66
2024/03/01 10:42:08;0.00;0.00;0.62;0.00;0.00;0.62;8.17;6.43;;;22.80;23.80;;;;;;2263817;61;20355;-66
2024/03/01 10:45:04;0.00;0.00;0.62;0.00;0.00;0.62;6.97;6.13;;;22.80;23.80;;;;;;2261040;61;20988;-66
2024/03/01 10:47:50;0.00;0.00;0.62;0.00;0.00;0.62;7.60;6.87;;;22.80;23.80;;;;;;2321998;53;20797;-66
2024/03/01 10:50:43;0.00;0.00;0.62;0.00;0.00;0.62;8.90;6.80;;;22.80;23.80;;;;;;2380772;45;20503;-66
2024/03/01 10:53:33;0.00;0.00;0.62;0.00;0.00;0.62;6.40;5.70;;;22.80;23.80;;;;;;2263757;61;20368;-66
2024/03/01 10:56:20;0.00;0.00;0.62;0.00;0.00;0.62;7.40;5.77;;;22.80;23.80;;;;;;2303874;58;20797;-66
2024/03/01 10:59:14;0.00;0.00;0.62;0.00;0.00;0.62;8.43;7.00;;;22.90;23.90;;;;;;2260613;61;20482;-66